Time;durP1;ratioP1;P1;durP2;ratioP2;P2;SDS_P1;SDS_P2;PMS_P1;PMS_P2;Temp;Humidity;BMP_temperature;BMP_pressure;BME280_temperature;BME280_humidity;BME280_pressure;Samples;Min_cycle;Max_cycle;Signal;HPM_P1;HPM_P2
2022/06/26 00:02:00;;;;;;;1.15;0.70;;;18.10;99.90;;;;;;5046712;28;20507;-80
2022/06/26 00:04:27;;;;;;;0.75;0.60;;;18.10;99.90;;;;;;5046931;28;20138;-81
2022/06/26 00:06:55;;;;;;;1.30;0.82;;;18.00;99.90;;;;;;5046949;28;20045;-81
2022/06/26 00:09:22;;;;;;;1.10;0.70;;;18.00;99.90;;;;;;5046258;28;20050;-81
2022/06/26 00:11:49;;;;;;;0.85;0.50;;;18.00;99.90;;;;;;5063043;28;20072;-80
2022/06/26 00:14:15;;;;;;;0.68;0.60;;;18.00;99.90;;;;;;5063066;28;20050;-80
2022/06/26 00:16:42;;;;;;;0.80;0.65;;;18.00;99.90;;;;;;5063431;28;20081;-81
2022/06/26 00:19:09;;;;;;;1.20;0.73;;;17.90;99.90;;;;;;5046800;28;20041;-81
2022/06/26 00:21:35;;;;;;;0.98;0.63;;;17.90;99.90;;;;;;5046475;28;20490;-81
2022/06/26 00:24:02;;;;;;;0.70;0.68;;;17.90;99.90;;;;;;5029805;28;20038;-81
2022/06/26 00:26:29;;;;;;;0.65;0.50;;;17.90;99.90;;;;;;5046194;28;20261;-81
2022/06/26 00:28:56;;;;;;;1.17;0.77;;;17.90;99.90;;;;;;5063030;28;20045;-81
2022/06/26 00:31:22;;;;;;;0.73;0.45;;;17.80;99.90;;;;;;5046368;28;20128;-80
2022/06/26 00:33:49;;;;;;;1.08;0.60;;;17.80;99.90;;;;;;5063059;28;20038;-80
2022/06/26 00:36:16;;;;;;;0.93;0.70;;;17.80;99.90;;;;;;5062785;28;20103;-81
2022/06/26 00:38:42;;;;;;;0.38;0.38;;;17.70;99.90;;;;;;5062453;28;20041;-81
2022/06/26 00:41:09;;;;;;;0.75;0.52;;;17.70;99.90;;;;;;5046213;28;20049;-81
2022/06/26 00:43:36;;;;;;;0.90;0.68;;;17.70;99.90;;;;;;5046214;28;20514;-81
2022/06/26 00:46:04;;;;;;;1.00;0.73;;;17.70;99.90;;;;;;5029899;28;20037;-81
2022/06/26 00:48:31;;;;;;;0.40;0.40;;;17.70;99.90;;;;;;5046462;28;20096;-81
2022/06/26 00:50:58;;;;;;;0.80;0.70;;;17.60;99.90;;;;;;5030126;28;20077;-80
2022/06/26 00:53:25;;;;;;;0.88;0.60;;;17.60;99.90;;;;;;5029443;28;20048;-81
2022/06/26 00:55:51;;;;;;;1.73;1.00;;;17.60;99.90;;;;;;5046033;28;20045;-81
2022/06/26 00:58:18;;;;;;;0.70;0.55;;;17.60;99.90;;;;;;5062056;28;20041;-81
2022/06/26 01:00:45;;;;;;;1.02;0.80;;;17.50;99.90;;;;;;5045894;28;20046;-81
2022/06/26 01:03:12;;;;;;;0.57;0.45;;;17.60;99.90;;;;;;5045914;28;20041;-80
2022/06/26 01:05:39;;;;;;;0.63;0.50;;;17.60;99.90;;;;;;5030030;28;20034;-80
2022/06/26 01:08:07;;;;;;;0.50;0.50;;;17.50;99.90;;;;;;5062482;28;20042;-81
2022/06/26 01:10:34;;;;;;;0.70;0.50;;;17.50;99.90;;;;;;5031141;28;20137;-81
2022/06/26 01:13:01;;;;;;;0.65;0.57;;;17.50;99.90;;;;;;5050406;28;20068;-81
2022/06/26 01:15:28;;;;;;;1.25;0.90;;;17.50;99.90;;;;;;5066648;28;20411;-81
2022/06/26 01:17:55;;;;;;;1.33;0.60;;;17.40;99.90;;;;;;5083480;28;20041;-80
2022/06/26 01:20:22;;;;;;;0.95;0.70;;;17.40;99.90;;;;;;5049663;28;20046;-80
2022/06/26 01:23:09;;;;;;;1.10;0.75;;;17.40;99.90;;;;;;5049651;28;20176;-81
2022/06/26 01:25:54;;;;;;;0.63;0.50;;;17.40;99.90;;;;;;5033408;28;20503;-81
2022/06/26 01:28:20;;;;;;;0.77;0.70;;;17.30;99.90;;;;;;5033099;28;20049;-81
2022/06/26 01:30:47;;;;;;;1.30;0.70;;;17.40;99.90;;;;;;5049984;28;20045;-81
2022/06/26 01:33:14;;;;;;;0.85;0.43;;;17.30;99.90;;;;;;5066104;28;20112;-81
2022/06/26 01:35:40;;;;;;;1.00;0.50;;;17.30;99.90;;;;;;5066045;28;20053;-81
2022/06/26 01:38:16;;;;;;;1.27;0.60;;;17.30;99.90;;;;;;5066551;28;20052;-81
2022/06/26 01:40:44;;;;;;;1.08;0.55;;;17.30;99.90;;;;;;5033123;28;20045;-79
2022/06/26 01:43:17;;;;;;;0.75;0.57;;;17.30;99.90;;;;;;5049776;28;20044;-81
2022/06/26 01:45:48;;;;;;;0.63;0.43;;;17.30;99.90;;;;;;5049588;28;20036;-81
2022/06/26 01:48:16;;;;;;;2.20;0.60;;;17.30;99.90;;;;;;5065768;28;20038;-80
2022/06/26 01:50:45;;;;;;;0.75;0.40;;;17.30;99.90;;;;;;5049255;28;20046;-80
2022/06/26 01:53:12;;;;;;;0.63;0.47;;;17.30;99.90;;;;;;5033396;28;20049;-80
2022/06/26 01:55:40;;;;;;;0.50;0.50;;;17.30;99.90;;;;;;5082522;28;20595;-81
2022/06/26 01:58:07;;;;;;;0.63;0.50;;;17.30;99.90;;;;;;5049243;28;20049;-81
2022/06/26 02:00:40;;;;;;;1.60;0.60;;;17.30;99.90;;;;;;5049111;28;20100;-81
2022/06/26 02:03:08;;;;;;;1.45;0.50;;;17.30;99.90;;;;;;5033139;28;20053;-81
2022/06/26 02:05:35;;;;;;;1.27;0.70;;;17.30;99.90;;;;;;5032590;28;20121;-81
2022/06/26 02:08:03;;;;;;;0.80;0.52;;;17.30;99.90;;;;;;5065740;28;20120;-80
2022/06/26 02:16:03;;;;;;;;;;;17.30;99.90;;;;;;5063353;28;20085;-80
2022/06/26 02:18:30;;;;;;;0.60;0.50;;;17.40;99.90;;;;;;5065521;28;19917;-80
2022/06/26 02:20:57;;;;;;;0.80;0.55;;;17.40;99.90;;;;;;5065019;28;20561;-81
2022/06/26 02:23:24;;;;;;;0.85;0.60;;;17.50;99.90;;;;;;5031834;28;20040;-81
2022/06/26 02:25:52;;;;;;;1.02;0.60;;;17.60;99.90;;;;;;5048767;28;20744;-80
2022/06/26 02:28:19;;;;;;;0.80;0.60;;;17.60;99.90;;;;;;5032087;28;20089;-80
2022/06/26 02:30:46;;;;;;;0.88;0.50;;;17.60;99.90;;;;;;5048874;28;20084;-80
2022/06/26 02:33:12;;;;;;;0.32;0.28;;;17.70;99.90;;;;;;5048754;28;20403;-81
2022/06/26 02:35:39;;;;;;;0.80;0.50;;;17.80;99.90;;;;;;5048545;28;20045;-81
2022/06/26 02:38:06;;;;;;;0.80;0.50;;;17.80;99.90;;;;;;5065519;28;20045;-80
2022/06/26 02:40:33;;;;;;;0.75;0.50;;;17.90;99.90;;;;;;5031830;28;20415;-80
2022/06/26 02:43:00;;;;;;;1.02;0.63;;;17.90;99.90;;;;;;5048778;28;20077;-80
2022/06/26 02:45:27;;;;;;;0.57;0.50;;;17.90;99.90;;;;;;5064356;28;20518;-79
2022/06/26 02:47:53;;;;;;;0.40;0.40;;;17.90;99.90;;;;;;5064856;28;20168;-80
2022/06/26 02:50:20;;;;;;;0.25;0.22;;;18.00;99.90;;;;;;5064318;28;20499;-80
2022/06/26 02:52:47;;;;;;;0.65;0.32;;;18.00;99.90;;;;;;5064476;28;20046;-81
2022/06/26 02:55:14;;;;;;;0.90;0.55;;;18.00;99.90;;;;;;5048305;28;20044;-80
2022/06/26 02:57:40;;;;;;;0.88;0.63;;;18.00;99.90;;;;;;5048399;28;20458;-80
2022/06/26 03:00:10;;;;;;;0.65;0.40;;;18.00;99.90;;;;;;5048044;28;20513;-80
2022/06/26 03:02:37;;;;;;;1.35;0.80;;;18.00;99.90;;;;;;5080909;28;20547;-80
2022/06/26 03:05:04;;;;;;;1.15;0.95;;;18.00;99.90;;;;;;5047675;28;20120;-80
2022/06/26 03:07:31;;;;;;;0.50;0.47;;;18.10;99.90;;;;;;5047311;28;20037;-80
2022/06/26 03:09:58;;;;;;;1.15;0.73;;;18.10;99.90;;;;;;5063931;28;20049;-80
2022/06/26 03:12:25;;;;;;;0.82;0.60;;;18.10;99.90;;;;;;5047145;28;20076;-80
2022/06/26 03:14:51;;;;;;;0.70;0.50;;;18.10;99.90;;;;;;5047556;28;20044;-80
2022/06/26 03:17:19;;;;;;;0.73;0.50;;;18.10;99.90;;;;;;5063788;28;20045;-80
2022/06/26 03:19:45;;;;;;;0.20;0.20;;;18.10;99.90;;;;;;5047569;28;20133;-80
2022/06/26 03:22:12;;;;;;;0.82;0.50;;;18.10;99.90;;;;;;5047451;28;20116;-80
2022/06/26 03:24:39;;;;;;;1.00;0.60;;;18.10;99.90;;;;;;5063863;28;20099;-80
2022/06/26 03:27:06;;;;;;;0.32;0.32;;;18.00;99.90;;;;;;5047396;28;20093;-80
2022/06/26 03:29:32;;;;;;;0.95;0.52;;;18.10;99.90;;;;;;5031001;28;20563;-80
2022/06/26 03:31:59;;;;;;;1.08;0.65;;;18.10;99.90;;;;;;5063902;28;20128;-81
2022/06/26 03:34:26;;;;;;;0.45;0.43;;;18.10;99.90;;;;;;5031011;28;20044;-81
2022/06/26 03:36:53;;;;;;;0.50;0.50;;;18.10;99.90;;;;;;5063917;28;20045;-80
2022/06/26 03:39:19;;;;;;;0.32;0.25;;;18.10;99.90;;;;;;5047633;28;20080;-80
2022/06/26 03:41:57;;;;;;;0.75;0.40;;;18.10;99.90;;;;;;5047002;28;20097;-80
2022/06/26 03:44:29;;;;;;;0.38;0.38;;;18.10;99.90;;;;;;5080496;28;20116;-81
2022/06/26 03:46:56;;;;;;;0.15;0.15;;;18.00;99.90;;;;;;5031236;28;20038;-80
2022/06/26 03:49:23;;;;;;;0.70;0.60;;;18.00;99.90;;;;;;5047596;28;20034;-80
2022/06/26 03:51:50;;;;;;;0.35;0.32;;;18.00;99.90;;;;;;5047199;28;20048;-80
2022/06/26 03:54:18;;;;;;;0.20;0.20;;;17.90;99.90;;;;;;5047327;28;20041;-80
2022/06/26 03:56:44;;;;;;;0.13;0.10;;;17.90;99.90;;;;;;5046833;28;20111;-80
2022/06/26 03:59:11;;;;;;;0.17;0.17;;;17.80;99.90;;;;;;5047452;28;20041;-80
2022/06/26 04:01:38;;;;;;;0.17;0.17;;;17.70;99.90;;;;;;5063239;28;20126;-80
2022/06/26 04:04:05;;;;;;;0.30;0.20;;;17.80;99.90;;;;;;5063340;28;20045;-80
2022/06/26 04:06:32;;;;;;;0.13;0.10;;;17.70;99.90;;;;;;5080127;28;20038;-81
2022/06/26 04:08:58;;;;;;;0.43;0.25;;;17.70;99.90;;;;;;5047446;28;20095;-80
2022/06/26 04:11:25;;;;;;;0.20;0.20;;;17.70;99.90;;;;;;5055261;28;20128;-80
2022/06/26 04:13:52;;;;;;;0.22;0.20;;;17.60;99.90;;;;;;5035481;28;20038;-80
2022/06/26 04:16:19;;;;;;;0.15;0.10;;;17.60;99.90;;;;;;5014637;28;20135;-80
2022/06/26 04:18:45;;;;;;;0.08;0.08;;;17.60;99.90;;;;;;5020093;28;20061;-80
2022/06/26 04:21:12;;;;;;;0.10;0.10;;;17.60;99.90;;;;;;5033258;28;20518;-81
2022/06/26 04:23:39;;;;;;;0.10;0.10;;;17.60;99.90;;;;;;5030667;28;20040;-80
2022/06/26 04:26:06;;;;;;;0.10;0.10;;;17.60;99.90;;;;;;5030248;28;20510;-80
2022/06/26 04:28:33;;;;;;;0.10;0.10;;;17.60;99.90;;;;;;5014142;28;20080;-80
2022/06/26 04:30:59;;;;;;;0.10;0.10;;;17.60;99.90;;;;;;5013994;28;20052;-80
2022/06/26 04:33:26;;;;;;;0.00;0.00;;;17.60;99.90;;;;;;5014166;28;20844;-80
2022/06/26 04:35:53;;;;;;;0.22;0.10;;;17.70;99.90;;;;;;5013706;28;20128;-80
2022/06/26 04:38:20;;;;;;;0.03;0.03;;;17.60;99.90;;;;;;5013908;28;20048;-81
2022/06/26 04:40:47;;;;;;;0.10;0.10;;;17.70;99.90;;;;;;5013482;28;20065;-80
2022/06/26 04:43:13;;;;;;;0.10;0.10;;;17.70;99.90;;;;;;5046627;28;20037;-80
2022/06/26 04:45:40;;;;;;;0.10;0.10;;;17.70;99.90;;;;;;5078245;28;20121;-79
2022/06/26 04:48:07;;;;;;;0.20;0.20;;;17.70;99.90;;;;;;5046143;28;20034;-80
2022/06/26 04:50:34;;;;;;;0.00;0.00;;;17.70;99.90;;;;;;5029740;28;20049;-80
2022/06/26 04:53:01;;;;;;;0.10;0.10;;;17.70;99.90;;;;;;5062760;28;20072;-81
2022/06/26 04:55:27;;;;;;;0.20;0.10;;;17.60;99.90;;;;;;5062744;28;20080;-80
2022/06/26 04:57:54;;;;;;;0.10;0.10;;;17.60;99.90;;;;;;5045995;28;20077;-80
2022/06/26 05:00:21;;;;;;;0.13;0.13;;;17.60;99.90;;;;;;5029652;28;20080;-80
2022/06/26 05:02:48;;;;;;;0.10;0.10;;;17.60;99.90;;;;;;5045779;28;20133;-81
2022/06/26 05:05:15;;;;;;;0.10;0.10;;;17.60;99.90;;;;;;5045983;28;20038;-81
2022/06/26 05:07:42;;;;;;;0.25;0.22;;;17.60;99.90;;;;;;5045764;28;20042;-81
2022/06/26 05:10:08;;;;;;;0.10;0.10;;;17.60;99.90;;;;;;5029544;28;20091;-80
2022/06/26 05:12:35;;;;;;;0.03;0.03;;;17.50;99.90;;;;;;5029395;28;20096;-80
2022/06/26 05:15:02;;;;;;;0.15;0.15;;;17.50;99.90;;;;;;5045864;28;20042;-81
2022/06/26 05:17:29;;;;;;;0.10;0.10;;;17.50;99.90;;;;;;5046012;28;20042;-80
2022/06/26 05:19:56;;;;;;;0.25;0.10;;;17.50;99.90;;;;;;5045755;28;20045;-81
2022/06/26 05:22:23;;;;;;;0.10;0.10;;;17.40;99.90;;;;;;5045801;28;20049;-80
2022/06/26 05:24:49;;;;;;;0.13;0.10;;;17.50;99.90;;;;;;5045728;28;20038;-80
2022/06/26 05:27:16;;;;;;;0.00;0.00;;;17.40;99.90;;;;;;5045840;28;20064;-80
2022/06/26 05:29:43;;;;;;;0.10;0.10;;;17.40;99.90;;;;;;5045630;28;20052;-80
2022/06/26 05:32:09;;;;;;;0.00;0.00;;;17.50;99.90;;;;;;5062278;28;20128;-79
2022/06/26 05:34:36;;;;;;;0.00;0.00;;;17.40;99.90;;;;;;5062071;28;20042;-81
2022/06/26 05:37:03;;;;;;;0.00;0.00;;;17.50;99.90;;;;;;5029082;28;20041;-81
2022/06/26 05:39:30;;;;;;;0.10;0.10;;;17.50;99.90;;;;;;5045709;28;20050;-81
2022/06/26 05:41:57;;;;;;;0.00;0.00;;;17.60;99.90;;;;;;5045540;28;20084;-81
2022/06/26 05:44:23;;;;;;;0.10;0.10;;;17.60;99.90;;;;;;5062237;28;20084;-80
2022/06/26 05:46:50;;;;;;;0.10;0.10;;;17.60;99.90;;;;;;5061797;28;20510;-81
2022/06/26 05:49:17;;;;;;;0.15;0.15;;;17.70;99.90;;;;;;5045764;28;20066;-81
2022/06/26 05:51:43;;;;;;;0.15;0.10;;;17.70;99.90;;;;;;5045625;28;20096;-81
2022/06/26 05:54:10;;;;;;;0.13;0.10;;;17.80;99.90;;;;;;5045530;28;20042;-80
2022/06/26 05:56:37;;;;;;;0.20;0.20;;;17.80;99.90;;;;;;5047338;28;20042;-81
2022/06/26 05:59:03;;;;;;;0.10;0.10;;;17.80;99.90;;;;;;5032869;28;20095;-82
2022/06/26 06:01:30;;;;;;;0.10;0.10;;;17.80;99.90;;;;;;5048878;28;20042;-81
2022/06/26 06:03:57;;;;;;;0.10;0.10;;;17.80;99.90;;;;;;5048905;28;20081;-81
2022/06/26 06:06:23;;;;;;;0.10;0.10;;;17.90;99.90;;;;;;5065751;28;20034;-81
2022/06/26 06:08:50;;;;;;;0.17;0.17;;;17.90;99.90;;;;;;5048536;28;20069;-79
2022/06/26 06:11:17;;;;;;;0.17;0.13;;;18.00;99.90;;;;;;5049203;28;20048;-81
2022/06/26 06:13:44;;;;;;;0.20;0.20;;;18.00;99.90;;;;;;5065737;28;20502;-81
2022/06/26 06:16:10;;;;;;;0.20;0.17;;;18.00;99.90;;;;;;5065394;28;20064;-81
2022/06/26 06:18:37;;;;;;;0.00;0.00;;;18.00;99.90;;;;;;5048604;28;20040;-80
2022/06/26 06:21:04;;;;;;;0.03;0.03;;;18.10;99.90;;;;;;5065066;28;20041;-81
2022/06/26 06:23:30;;;;;;;0.28;0.20;;;18.10;99.90;;;;;;5051132;28;20042;-81
2022/06/26 06:25:57;;;;;;;0.10;0.10;;;18.30;99.90;;;;;;5029297;28;20042;-81
2022/06/26 06:28:24;;;;;;;0.10;0.10;;;18.40;99.90;;;;;;5046552;28;20042;-80
2022/06/26 06:30:50;;;;;;;0.25;0.25;;;18.60;99.90;;;;;;5031835;28;20041;-80
2022/06/26 06:33:17;;;;;;;0.28;0.28;;;18.60;99.90;;;;;;5048589;28;20048;-80
2022/06/26 06:35:44;;;;;;;0.10;0.10;;;18.60;99.90;;;;;;5062527;28;20048;-81
2022/06/26 06:38:11;;;;;;;0.40;0.30;;;18.70;99.90;;;;;;5052117;28;20073;-81
2022/06/26 06:40:37;;;;;;;0.40;0.30;;;18.70;99.90;;;;;;5034025;28;20042;-80
2022/06/26 06:43:09;;;;;;;0.10;0.10;;;18.70;99.90;;;;;;5019932;28;20042;-81
2022/06/26 06:45:36;;;;;;;0.32;0.30;;;18.60;99.90;;;;;;5032465;28;20037;-81
2022/06/26 06:48:03;;;;;;;0.47;0.30;;;18.70;99.90;;;;;;5032392;28;20487;-81
2022/06/26 06:50:29;;;;;;;0.22;0.22;;;18.60;99.90;;;;;;5032603;28;20510;-81
2022/06/26 06:52:56;;;;;;;0.28;0.20;;;18.60;99.90;;;;;;5048487;28;20415;-81
2022/06/26 06:55:23;;;;;;;0.32;0.25;;;18.80;99.90;;;;;;5032292;28;20042;-80
2022/06/26 06:57:50;;;;;;;0.43;0.30;;;18.80;99.90;;;;;;5016115;28;20037;-81
2022/06/26 07:00:16;;;;;;;0.30;0.20;;;18.90;99.90;;;;;;5015787;28;20411;-81
2022/06/26 07:02:43;;;;;;;0.40;0.40;;;19.00;99.90;;;;;;5015762;28;20034;-81
2022/06/26 07:05:10;;;;;;;0.20;0.20;;;19.20;99.90;;;;;;5039564;28;20121;-81
2022/06/26 07:07:37;;;;;;;0.80;0.50;;;19.20;99.90;;;;;;5043554;28;20040;-81
2022/06/26 07:10:04;;;;;;;0.47;0.30;;;19.20;99.90;;;;;;5047795;28;20034;-81
2022/06/26 07:12:31;;;;;;;1.23;0.60;;;19.30;99.90;;;;;;5081074;28;20111;-82
2022/06/26 07:14:58;;;;;;;0.40;0.40;;;19.20;99.90;;;;;;5060448;28;20046;-81
2022/06/26 07:17:25;;;;;;;0.32;0.28;;;19.10;99.90;;;;;;5031181;28;20034;-81
2022/06/26 07:19:51;;;;;;;0.52;0.52;;;19.10;99.90;;;;;;5027859;28;20040;-81
2022/06/26 07:22:18;;;;;;;0.70;0.45;;;19.10;99.90;;;;;;5019539;28;20403;-82
2022/06/26 07:24:45;;;;;;;0.60;0.50;;;19.10;99.90;;;;;;5031428;28;20030;-82
2022/06/26 07:27:11;;;;;;;0.45;0.45;;;19.10;99.90;;;;;;5010245;28;20117;-80
2022/06/26 07:29:38;;;;;;;0.60;0.50;;;19.30;99.90;;;;;;5032987;28;20042;-82
2022/06/26 07:32:05;;;;;;;1.42;0.75;;;19.30;99.90;;;;;;5026123;28;20486;-81
2022/06/26 07:34:32;;;;;;;0.80;0.55;;;19.30;99.90;;;;;;5025172;28;20117;-82
2022/06/26 07:36:58;;;;;;;1.17;0.75;;;19.40;99.90;;;;;;5028753;28;20042;-81
2022/06/26 07:39:25;;;;;;;0.82;0.55;;;19.30;99.90;;;;;;5032861;28;20502;-82
2022/06/26 07:41:52;;;;;;;1.15;0.80;;;19.30;99.90;;;;;;5034895;28;20076;-81
2022/06/26 07:44:19;;;;;;;0.98;0.70;;;19.30;99.90;;;;;;5048571;28;20041;-81
2022/06/26 07:46:45;;;;;;;0.47;0.45;;;19.40;99.90;;;;;;5028015;28;20034;-81
2022/06/26 07:49:12;;;;;;;1.38;0.80;;;19.30;99.90;;;;;;5026091;28;20131;-81
2022/06/26 07:51:39;;;;;;;0.60;0.60;;;19.50;99.90;;;;;;5047120;28;20504;-81
2022/06/26 07:54:06;;;;;;;1.00;0.70;;;19.60;99.90;;;;;;5060174;28;20115;-81
2022/06/26 07:56:33;;;;;;;0.88;0.60;;;19.70;99.90;;;;;;5048211;28;20041;-82
2022/06/26 07:59:00;;;;;;;0.82;0.60;;;19.70;99.90;;;;;;5016667;28;20060;-82
2022/06/26 08:01:27;;;;;;;0.52;0.40;;;19.90;99.90;;;;;;5015073;28;20462;-83
2022/06/26 08:03:54;;;;;;;1.48;0.60;;;20.10;99.90;;;;;;5026336;28;20041;-80
2022/06/26 08:06:21;;;;;;;0.77;0.52;;;20.10;99.90;;;;;;5034521;28;20041;-82
2022/06/26 08:08:48;;;;;;;0.50;0.40;;;19.90;99.90;;;;;;5031887;28;20038;-81
2022/06/26 08:11:15;;;;;;;0.80;0.50;;;19.80;99.90;;;;;;5031245;28;20042;-82
2022/06/26 08:13:41;;;;;;;0.70;0.47;;;19.60;99.90;;;;;;5037268;28;20037;-82
2022/06/26 08:16:08;;;;;;;0.85;0.60;;;19.60;99.90;;;;;;5032035;28;20033;-82
2022/06/26 08:18:35;;;;;;;0.63;0.50;;;19.70;99.90;;;;;;5046923;28;20475;-81
2022/06/26 08:22:00;;;;;;;1.13;0.60;;;19.80;99.90;;;;;;5030525;28;20125;-82
2022/06/26 08:23:49;;;;;;;1.70;1.00;;;19.90;99.90;;;;;;5055883;28;20048;-82
2022/06/26 08:26:15;;;;;;;1.42;0.93;;;20.20;99.90;;;;;;5014065;28;20074;-81
2022/06/26 08:28:42;;;;;;;1.00;0.63;;;20.30;99.90;;;;;;5011023;28;20484;-82
2022/06/26 08:31:09;;;;;;;1.27;0.80;;;20.40;99.90;;;;;;5030979;28;20110;-82
2022/06/26 08:33:36;;;;;;;1.33;0.90;;;20.40;99.90;;;;;;5017174;28;20049;-82
2022/06/26 08:36:04;;;;;;;1.05;0.70;;;20.40;99.90;;;;;;5049704;28;20049;-82
2022/06/26 08:38:30;;;;;;;0.80;0.75;;;20.20;99.90;;;;;;5044920;28;20426;-82
2022/06/26 08:41:01;;;;;;;0.77;0.63;;;20.30;99.90;;;;;;5030988;28;20045;-82
2022/06/26 08:43:29;;;;;;;0.68;0.50;;;20.40;99.90;;;;;;5031565;28;20490;-82
2022/06/26 08:45:57;;;;;;;1.13;0.57;;;20.60;99.90;;;;;;5029203;28;20128;-82
2022/06/26 08:48:27;;;;;;;1.52;0.85;;;20.60;99.90;;;;;;5049575;28;20134;-82
2022/06/26 08:50:55;;;;;;;1.90;1.23;;;20.60;99.90;;;;;;5065147;28;20049;-82
2022/06/26 08:53:23;;;;;;;1.70;1.10;;;20.70;99.90;;;;;;5049349;28;20551;-82
2022/06/26 08:55:50;;;;;;;0.90;0.73;;;20.70;99.90;;;;;;5018471;28;20048;-82
2022/06/26 08:58:16;;;;;;;0.65;0.43;;;21.00;99.90;;;;;;5009762;28;20477;-83
2022/06/26 09:00:46;;;;;;;0.90;0.60;;;21.20;99.90;;;;;;5025329;28;20129;-82
2022/06/26 09:03:14;;;;;;;0.85;0.52;;;21.30;99.90;;;;;;5033677;28;20051;-82
2022/06/26 09:05:41;;;;;;;0.80;0.63;;;21.00;99.90;;;;;;5021786;28;20030;-83
2022/06/26 09:08:17;;;;;;;1.05;0.80;;;21.00;99.90;;;;;;5042588;28;20455;-81
2022/06/26 09:10:46;;;;;;;0.45;0.40;;;20.80;99.90;;;;;;5061173;28;20044;-82
2022/06/26 09:13:13;;;;;;;0.88;0.68;;;20.50;99.90;;;;;;5016601;28;20072;-81
2022/06/26 09:15:41;;;;;;;0.85;0.68;;;20.50;99.90;;;;;;5047345;28;20037;-82
2022/06/26 09:18:09;;;;;;;0.65;0.50;;;20.60;99.90;;;;;;5049504;28;20132;-82
2022/06/26 09:20:48;;;;;;;0.63;0.57;;;20.70;99.90;;;;;;5029241;28;20064;-81
2022/06/26 09:23:16;;;;;;;1.20;0.70;;;20.90;99.90;;;;;;5036725;28;20034;-82
2022/06/26 09:25:44;;;;;;;0.82;0.50;;;21.10;99.90;;;;;;5019658;28;20068;-82
2022/06/26 09:28:14;;;;;;;0.43;0.43;;;21.40;99.90;;;;;;5021704;28;20058;-82
2022/06/26 09:30:57;;;;;;;0.93;0.60;;;21.50;99.90;;;;;;5055855;28;20058;-81
2022/06/26 09:33:27;;;;;;;0.93;0.47;;;21.60;99.90;;;;;;5052903;28;20091;-82
2022/06/26 09:35:56;;;;;;;1.15;0.65;;;21.40;99.90;;;;;;5065956;28;20072;-82
2022/06/26 09:38:27;;;;;;;0.50;0.50;;;21.20;99.90;;;;;;5033489;28;20037;-81
2022/06/26 09:41:10;;;;;;;0.38;0.32;;;21.00;99.90;;;;;;5033235;28;20037;-82
2022/06/26 09:43:42;;;;;;;0.20;0.20;;;21.00;99.90;;;;;;5033995;28;20049;-82
2022/06/26 09:46:11;;;;;;;0.40;0.40;;;20.90;99.90;;;;;;5036662;28;20033;-82
2022/06/26 09:48:40;;;;;;;0.50;0.35;;;21.00;99.90;;;;;;5052753;28;20502;-82
2022/06/26 09:51:10;;;;;;;0.32;0.30;;;21.00;99.90;;;;;;5022960;28;20503;-82
2022/06/26 09:53:38;;;;;;;0.30;0.30;;;21.10;99.90;;;;;;5066481;28;20045;-82
2022/06/26 09:56:06;;;;;;;0.50;0.45;;;21.40;99.90;;;;;;5016732;28;20511;-81
2022/06/26 09:58:33;;;;;;;0.95;0.63;;;21.60;99.90;;;;;;5013106;28;20084;-82
2022/06/26 10:06:36;;;;;;;0.50;0.40;;;22.10;99.90;;;;;;5050426;28;20053;-81
2022/06/26 10:09:07;;;;;;;0.28;0.22;;;22.20;99.90;;;;;;5016230;28;20042;-80
2022/06/26 10:11:40;;;;;;;0.25;0.25;;;22.50;99.90;;;;;;5018521;28;20103;-80
2022/06/26 10:14:13;;;;;;;0.68;0.50;;;22.80;99.90;;;;;;5052857;28;20041;-81
2022/06/26 10:17:13;;;;;;;0.47;0.40;;;22.70;99.90;;;;;;5044499;28;20095;-81
2022/06/26 10:19:49;;;;;;;0.65;0.63;;;22.40;99.90;;;;;;5049629;28;20091;-82
2022/06/26 10:22:22;;;;;;;0.50;0.50;;;22.20;99.90;;;;;;5046822;28;20046;-82
2022/06/26 10:25:02;;;;;;;0.82;0.57;;;22.30;99.90;;;;;;5039186;28;20069;-81
2022/06/26 10:27:34;;;;;;;0.45;0.40;;;22.10;99.90;;;;;;5032775;28;20054;-83
2022/06/26 10:30:09;;;;;;;0.30;0.30;;;22.10;99.90;;;;;;5028560;28;20073;-80
2022/06/26 10:32:36;;;;;;;0.47;0.30;;;22.20;99.90;;;;;;5052508;28;20042;-82
2022/06/26 10:35:04;;;;;;;0.50;0.40;;;22.30;99.90;;;;;;5035802;28;20034;-82
2022/06/26 10:37:46;;;;;;;0.28;0.20;;;22.30;99.90;;;;;;5052058;28;20094;-80
2022/06/26 10:42:52;;;;;;;0.35;0.35;;;22.40;99.90;;;;;;5052206;28;20041;-80
2022/06/26 10:43:03;;;;;;;0.30;0.20;;;22.40;99.90;;;;;;5047119;28;20073;-80
2022/06/26 10:45:29;;;;;;;0.30;0.30;;;22.40;99.90;;;;;;5048489;28;20119;-79
2022/06/26 10:47:59;;;;;;;0.30;0.30;;;22.60;99.90;;;;;;5048043;28;20045;-80
2022/06/26 10:50:39;;;;;;;0.52;0.30;;;22.70;99.90;;;;;;5048322;28;20125;-82
2022/06/26 10:53:21;;;;;;;0.25;0.22;;;22.90;99.90;;;;;;5048303;28;20407;-82
2022/06/26 10:55:50;;;;;;;0.52;0.30;;;22.90;99.90;;;;;;5064981;28;20109;-82
2022/06/26 10:58:19;;;;;;;0.50;0.32;;;22.90;99.90;;;;;;5047993;28;20048;-82
2022/06/26 11:00:47;;;;;;;1.17;0.40;;;22.70;99.90;;;;;;5048209;28;20085;-81
2022/06/26 11:03:18;;;;;;;0.32;0.32;;;22.50;99.90;;;;;;5031810;28;20036;-81
2022/06/26 11:05:53;;;;;;;0.68;0.40;;;22.40;99.90;;;;;;5047662;28;20042;-81
2022/06/26 11:08:35;;;;;;;0.30;0.30;;;22.30;99.90;;;;;;5064701;28;20129;-82
2022/06/26 11:11:01;;;;;;;0.10;0.10;;;22.40;99.90;;;;;;5031861;28;20180;-82
2022/06/26 11:13:28;;;;;;;0.28;0.25;;;22.50;99.90;;;;;;5064241;28;20073;-81
2022/06/26 11:15:55;;;;;;;0.20;0.20;;;22.60;99.90;;;;;;5031440;28;20124;-81
2022/06/26 11:18:22;;;;;;;0.30;0.30;;;22.70;99.90;;;;;;5080515;28;20049;-81
2022/06/26 11:20:51;;;;;;;0.30;0.30;;;22.80;99.90;;;;;;5047620;28;20105;-82
2022/06/26 11:23:28;;;;;;;0.38;0.38;;;22.90;99.90;;;;;;5047207;28;20408;-80
2022/06/26 11:26:09;;;;;;;0.20;0.20;;;22.90;99.90;;;;;;5031423;28;20127;-81
2022/06/26 11:28:53;;;;;;;0.22;0.20;;;22.90;99.90;;;;;;5063780;28;20066;-80
2022/06/26 11:31:23;;;;;;;0.22;0.22;;;22.80;99.90;;;;;;5047516;28;20042;-81
2022/06/26 11:33:50;;;;;;;0.20;0.20;;;23.00;99.90;;;;;;5031046;28;20037;-81
2022/06/26 11:36:17;;;;;;;0.30;0.30;;;23.20;99.90;;;;;;5047226;28;20038;-82
2022/06/26 11:39:02;;;;;;;0.47;0.40;;;23.30;99.90;;;;;;5031132;28;20045;-81
2022/06/26 11:41:29;;;;;;;0.43;0.35;;;23.40;99.90;;;;;;5047208;28;20081;-82
2022/06/26 11:43:58;;;;;;;0.30;0.30;;;23.50;99.90;;;;;;5047404;28;20833;-82
2022/06/26 11:46:24;;;;;;;0.20;0.20;;;23.30;99.90;;;;;;5046975;28;20044;-82
2022/06/26 11:48:53;;;;;;;0.22;0.22;;;23.30;99.90;;;;;;5047267;28;20399;-82
2022/06/26 11:51:21;;;;;;;0.30;0.30;;;23.30;99.90;;;;;;5063557;28;20065;-81
2022/06/26 11:53:49;;;;;;;0.50;0.38;;;23.30;99.90;;;;;;5063545;28;20046;-82
2022/06/26 11:56:23;;;;;;;0.40;0.40;;;23.30;99.90;;;;;;5080043;28;20042;-80
2022/06/26 11:58:51;;;;;;;0.22;0.20;;;23.40;99.90;;;;;;5030673;28;20128;-82
2022/06/26 12:01:19;;;;;;;0.65;0.50;;;23.60;99.90;;;;;;5063546;28;20068;-82
2022/06/26 12:03:46;;;;;;;0.30;0.30;;;23.70;99.90;;;;;;5047187;28;20038;-81
2022/06/26 12:06:25;;;;;;;0.45;0.35;;;23.90;99.90;;;;;;5063430;28;20049;-82
2022/06/26 12:08:52;;;;;;;0.38;0.38;;;23.90;99.90;;;;;;5063575;28;20045;-81
2022/06/26 12:11:19;;;;;;;0.30;0.30;;;23.80;99.90;;;;;;5046884;28;20038;-81
2022/06/26 12:13:45;;;;;;;0.40;0.32;;;23.70;99.90;;;;;;5046541;28;20104;-82
2022/06/26 12:16:12;;;;;;;0.40;0.40;;;23.70;99.90;;;;;;5046732;28;20045;-82
2022/06/26 12:18:40;;;;;;;0.17;0.17;;;23.90;99.90;;;;;;5046896;28;20573;-82
2022/06/26 12:21:21;;;;;;;0.20;0.20;;;23.80;99.90;;;;;;5046623;28;20038;-82
2022/06/26 12:23:51;;;;;;;0.20;0.20;;;23.70;99.90;;;;;;5030437;28;20376;-81
2022/06/26 12:26:21;;;;;;;0.30;0.30;;;23.60;99.90;;;;;;5046178;28;20128;-82
2022/06/26 12:28:58;;;;;;;0.30;0.30;;;23.40;99.90;;;;;;5029392;28;20045;-82
2022/06/26 12:31:25;;;;;;;0.65;0.35;;;23.30;99.90;;;;;;5050507;28;20041;-80
2022/06/26 12:33:52;;;;;;;0.25;0.25;;;23.30;99.90;;;;;;5046846;28;20085;-80
2022/06/26 12:36:22;;;;;;;0.35;0.35;;;23.30;99.90;;;;;;5052687;28;20037;-80
2022/06/26 12:38:51;;;;;;;1.08;0.47;;;23.30;99.90;;;;;;5047946;28;20041;-80
2022/06/26 12:41:18;;;;;;;0.20;0.20;;;23.30;99.90;;;;;;5021478;28;20037;-80
2022/06/26 12:43:50;;;;;;;0.20;0.20;;;23.20;99.90;;;;;;5037759;28;20030;-80
2022/06/26 12:46:17;;;;;;;0.30;0.30;;;23.20;99.90;;;;;;5046365;28;20037;-82
2022/06/26 12:48:43;;;;;;;0.40;0.40;;;23.10;99.90;;;;;;5013953;28;20045;-80
2022/06/26 12:51:11;;;;;;;0.40;0.40;;;23.20;99.90;;;;;;5019915;28;20076;-80
2022/06/26 12:53:38;;;;;;;0.65;0.45;;;23.10;99.90;;;;;;5016429;28;20061;-82
2022/06/26 12:56:05;;;;;;;0.40;0.30;;;23.20;99.90;;;;;;5015252;28;20038;-80
2022/06/26 12:58:32;;;;;;;0.38;0.28;;;23.20;99.90;;;;;;5033413;28;20127;-80
2022/06/26 13:00:59;;;;;;;0.30;0.30;;;23.10;99.90;;;;;;5066475;28;20042;-80
2022/06/26 13:03:26;;;;;;;0.25;0.20;;;23.10;99.90;;;;;;5033606;28;20530;-82
2022/06/26 13:05:53;;;;;;;0.47;0.40;;;23.10;99.90;;;;;;5032492;28;20120;-82